Detall de PIREP

Printer-friendly versionPDF version

[2013/04/26 15:21:00]
Flight IATA:CT2311
Pilot Number:012
Company ICAO:CAT
Aircraft Type:MD11/E
PAX:254
Aircraft Registration:PAX
Departing Airport: LIMC
Destination Airport: LIEA
Alternate Airport:LIEO
Online: VATSIM
Route:VOG UM858 AJO UM194 REVDO
Flight Level:F290
No Slew and time accel
No pause
Crash detect
Detect pilot in Cockpit between each 30 and 45 minutes
15:21 Zero fuel Weight: 377796 Lbs, Fuel Weight: 34711 Lbs
15:21 VATSIM:LIMC 261450Z 30005KT 9999 SCT025 BKN070 17/11 Q1015 NOSIG
15:21 VATSIM:LIEA 261450Z 19012KT 9999 FEW030 22/15 Q1012
15:21 VOICE CATALONIAN
15:23 Parking Brakes off
15:29 Take-off
15:29 Take off Weight: 411337 Lbs
15:29 Wind: 300º @ 005 Knots Heading: 348º
15:29 POS N45º 37´ 40´´ E008º 43´ 26´´
15:29 Gear Up: 184 Knots
15:29 Flaps:3 at 184 Knots
15:30 Flaps:2 at 163 Knots
15:30 Flaps:3 at 166 Knots
15:30 Flaps:2 at 168 Knots
15:30 Flaps:1 at 169 Knots
15:30 Flaps:0 at 203 Knots
15:38 TOC
15:38 Fuel Weight: 26721 Lb
15:44 Wind:151º@041 Knots Heading: 169º Ground Speed: 436 Knots Altitude 29041 ft
15:59 Wind:172º@039 Knots Heading: 183º Ground Speed: 436 Knots Altitude 28979 ft
16:02 TOD
16:02 Fuel Weight: 20345 Lb
16:14 Wind:169º@021 Knots Heading: 201º Ground Speed: 276 Knots Altitude 10396 ft
16:19 Flaps:1 at 211 Knots
16:19 Flaps:2 at 211 Knots
16:19 Flaps:3 at 208 Knots
16:19 Flaps:1 at 207 Knots
16:19 Flaps:3 at 205 Knots
16:20 Gear Down: 201 Knots
16:20 Flaps:4 at 201 Knots
16:20 Flaps:3 at 202 Knots
16:20 Flaps:4 at 203 Knots
16:20 Flaps:5 at 202 Knots
16:20 Flaps:6 at 201 Knots
16:20 Flaps:7 at 168 Knots
16:24 TouchDown:Rate -428 ft/min Speed: 138 Knots
16:24 VATSIM:LIEA 261550Z 20017KT 9999 FEW030 21/15 Q1012
16:24 Land
16:24 Wind:200º@015 Knots
16:24 Heading: 204º
16:24 Flight Duration: 00:55
16:24 Landing Weight: 394646 Lbs
16:24 POS N40º 37´ 56´´ E008º 17´ 27´´
16:26 Parking brakes on
16:26 Block to Block Duration: 01:03
16:26 Final Fuel: 16633 Lbls
16:26 Spent Fuel: 18077 Lbls
16:26 Flight Length: 331 NM
16:26 TOD Land Length: 105 NM

Exportar CSV

Powered by Drupal - Modified by Danger4k